Time;durP1;ratioP1;P1;durP2;ratioP2;P2;SDS_P1;SDS_P2;PMS_P1;PMS_P2;Temp;Humidity;BMP_temperature;BMP_pressure;BME280_temperature;BME280_humidity;BME280_pressure;Samples;Min_cycle;Max_cycle;Signal;HPM_P1;HPM_P2
2023/02/22 00:01:20;;;;;;;;;;;7.00;99.90;;;;;;5051544;28;20047;-76
2023/02/22 00:03:50;;;;;;;22.55;8.60;;;6.90;99.90;;;;;;5069187;28;19960;-75
2023/02/22 00:06:18;;;;;;;28.38;9.80;;;6.90;99.90;;;;;;5069137;28;20078;-75
2023/02/22 00:08:46;;;;;;;24.63;8.27;;;6.80;99.90;;;;;;5068818;28;20486;-76
2023/02/22 00:11:13;;;;;;;20.23;6.70;;;6.80;99.90;;;;;;5069013;28;20064;-76
2023/02/22 00:13:42;;;;;;;20.95;7.20;;;6.80;99.90;;;;;;5069203;28;20031;-76
2023/02/22 00:16:11;;;;;;;13.02;5.07;;;6.70;99.90;;;;;;5069017;28;20020;-75
2023/02/22 00:18:37;;;;;;;8.85;3.63;;;6.70;99.90;;;;;;5068803;28;20519;-75
2023/02/22 00:21:03;;;;;;;;;;;6.80;99.90;;;;;;5051409;28;20044;-75
2023/02/22 00:23:30;;;;;;;14.30;5.88;;;6.80;99.90;;;;;;5068921;28;19904;-74
2023/02/22 00:25:57;;;;;;;13.10;5.03;;;6.80;99.90;;;;;;5068951;28;20021;-75
2023/02/22 00:28:24;;;;;;;16.75;6.13;;;6.90;99.90;;;;;;5068955;28;20025;-75
2023/02/22 00:30:50;;;;;;;16.17;5.75;;;7.00;99.90;;;;;;5050796;28;20067;-75
2023/02/22 00:33:16;;;;;;;15.07;5.90;;;7.00;99.90;;;;;;5050835;28;20508;-75
2023/02/22 00:35:44;;;;;;;;;;;7.10;99.90;;;;;;5051172;28;20067;-74
2023/02/22 00:38:11;;;;;;;12.32;4.75;;;7.10;99.90;;;;;;5068673;28;20327;-75
2023/02/22 00:40:39;;;;;;;11.05;4.55;;;7.20;99.90;;;;;;5050486;28;20114;-75
2023/02/22 00:43:05;;;;;;;9.35;3.92;;;7.30;99.90;;;;;;5050874;28;20067;-75
2023/02/22 00:45:34;;;;;;;10.40;4.20;;;7.40;99.90;;;;;;5050590;28;20090;-74
2023/02/22 00:48:01;;;;;;;7.25;3.65;;;7.50;99.90;;;;;;5068587;28;20104;-76
2023/02/22 00:50:28;;;;;;;8.55;3.88;;;7.50;99.90;;;;;;5068548;28;20070;-76
2023/02/22 00:52:55;;;;;;;7.53;3.80;;;7.60;99.90;;;;;;5050572;28;20115;-75
2023/02/22 00:55:33;;;;;;;8.73;4.20;;;7.60;99.90;;;;;;5050524;28;20024;-75
2023/02/22 00:58:00;;;;;;;10.30;4.55;;;7.60;99.90;;;;;;5068340;28;20028;-75
2023/02/22 01:00:29;;;;;;;15.30;5.00;;;7.50;99.90;;;;;;5068384;28;20056;-75
2023/02/22 01:02:55;;;;;;;12.20;4.93;;;7.50;99.90;;;;;;5068199;28;20036;-75
2023/02/22 01:05:26;;;;;;;9.40;4.13;;;7.50;99.90;;;;;;5052224;28;20353;-76
2023/02/22 01:07:52;;;;;;;12.55;4.25;;;7.50;99.90;;;;;;5072013;28;20458;-75
2023/02/22 01:10:20;;;;;;;8.73;4.38;;;7.50;99.90;;;;;;5071989;28;20028;-74
2023/02/22 01:12:46;;;;;;;6.70;3.22;;;7.50;99.90;;;;;;5072034;28;20047;-76
2023/02/22 01:15:13;;;;;;;8.40;3.53;;;7.50;99.90;;;;;;5054070;28;20093;-76
2023/02/22 01:17:40;;;;;;;7.70;3.75;;;7.40;99.90;;;;;;5053859;28;20044;-76
2023/02/22 01:20:11;;;;;;;8.75;3.63;;;7.40;99.90;;;;;;5053647;28;20046;-75
2023/02/22 01:22:37;;;;;;;7.88;3.72;;;7.40;99.90;;;;;;5071774;28;20051;-75
2023/02/22 01:25:06;;;;;;;9.23;4.20;;;7.40;99.90;;;;;;5071884;28;20056;-76
2023/02/22 01:27:32;;;;;;;7.18;3.85;;;7.40;99.90;;;;;;5071567;28;20036;-76
2023/02/22 01:29:58;;;;;;;8.02;4.38;;;7.40;99.90;;;;;;5071549;28;20731;-75
2023/02/22 01:32:24;;;;;;;;;;;7.40;99.90;;;;;;5071927;28;20511;-75
2023/02/22 01:34:53;;;;;;;5.70;2.92;;;7.40;99.90;;;;;;5071549;28;19959;-75
2023/02/22 01:37:19;;;;;;;7.90;3.20;;;7.40;99.90;;;;;;5071468;28;20024;-74
2023/02/22 01:39:44;;;;;;;;;;;7.40;99.90;;;;;;5071910;28;20044;-75
2023/02/22 01:42:10;;;;;;;6.72;2.78;;;7.40;99.90;;;;;;5071358;28;19923;-74
2023/02/22 01:44:37;;;;;;;;;;;7.40;99.90;;;;;;5071749;28;20037;-74
2023/02/22 01:47:04;;;;;;;4.57;1.70;;;7.40;99.90;;;;;;5053435;28;20357;-74
2023/02/22 01:49:50;;;;;;;5.13;2.40;;;7.50;99.90;;;;;;5071245;28;20028;-75
2023/02/22 01:52:18;;;;;;;7.30;3.42;;;7.50;99.90;;;;;;5070879;28;20048;-75
2023/02/22 01:54:49;;;;;;;9.32;3.13;;;7.50;99.90;;;;;;5071068;28;20520;-75
2023/02/22 01:57:23;;;;;;;7.97;2.33;;;7.50;99.90;;;;;;5071032;28;20025;-75
2023/02/22 01:59:53;;;;;;;7.03;3.03;;;7.50;99.90;;;;;;5071211;28;20028;-75
2023/02/22 02:02:20;;;;;;;6.32;2.83;;;7.60;99.90;;;;;;5071181;28;20154;-74
2023/02/22 02:04:47;;;;;;;7.05;2.25;;;7.60;99.90;;;;;;5070889;28;20049;-75
2023/02/22 02:07:16;;;;;;;3.38;1.95;;;7.60;99.90;;;;;;5052773;28;20059;-75
2023/02/22 02:09:46;;;;;;;4.93;1.83;;;7.60;99.90;;;;;;5070926;28;20031;-75
2023/02/22 02:12:14;;;;;;;4.40;1.30;;;7.60;99.90;;;;;;5070771;28;20102;-75
2023/02/22 02:14:41;;;;;;;4.88;1.65;;;7.70;99.90;;;;;;5052572;28;20106;-75
2023/02/22 02:17:14;;;;;;;4.65;1.77;;;7.70;99.90;;;;;;5070374;28;20041;-75
2023/02/22 02:20:06;;;;;;;3.25;1.75;;;7.70;99.90;;;;;;5070653;28;20028;-75
2023/02/22 02:22:46;;;;;;;4.40;3.15;;;7.80;99.90;;;;;;5070391;28;20029;-75
2023/02/22 02:25:33;;;;;;;2.90;1.40;;;7.90;99.90;;;;;;5052497;28;20078;-75
2023/02/22 02:28:01;;;;;;;;;;;7.80;99.90;;;;;;5053081;28;20028;-76
2023/02/22 02:30:39;;;;;;;10.73;5.63;;;7.70;99.90;;;;;;5070149;28;20369;-75
2023/02/22 02:33:10;;;;;;;6.35;2.92;;;7.60;99.90;;;;;;5070365;28;20481;-75
2023/02/22 02:35:44;;;;;;;6.28;2.70;;;7.50;99.90;;;;;;5070245;28;20045;-75
2023/02/22 02:38:21;;;;;;;5.35;2.38;;;7.40;99.90;;;;;;5070303;28;20110;-76
2023/02/22 02:40:49;;;;;;;;;;;7.30;99.90;;;;;;5070645;28;20032;-76
2023/02/22 02:43:21;;;;;;;4.75;2.00;;;7.10;99.90;;;;;;5052434;28;19943;-74
2023/02/22 02:46:07;;;;;;;4.55;2.28;;;7.00;99.90;;;;;;5052263;28;20032;-75
2023/02/22 02:48:35;;;;;;;7.25;1.90;;;6.90;99.90;;;;;;5055608;28;20466;-75
2023/02/22 02:51:04;;;;;;;6.53;3.38;;;6.80;99.90;;;;;;5070242;28;20025;-75
2023/02/22 02:53:35;;;;;;;5.03;2.35;;;6.80;99.90;;;;;;5069868;28;20032;-74
2023/02/22 02:56:01;;;;;;;5.85;2.20;;;6.70;99.90;;;;;;5069964;28;20032;-75
2023/02/22 02:58:27;;;;;;;5.15;2.50;;;6.70;99.90;;;;;;5051729;28;20079;-76
2023/02/22 03:00:54;;;;;;;;;;;6.60;99.90;;;;;;5070296;28;20525;-76
2023/02/22 03:03:40;;;;;;;7.28;2.28;;;6.50;99.90;;;;;;5069062;28;19931;-75
2023/02/22 03:06:14;;;;;;;4.10;2.22;;;6.40;99.90;;;;;;5051074;28;20037;-76
2023/02/22 03:09:14;;;;;;;6.63;3.30;;;6.20;99.90;;;;;;5067355;28;20032;-75
2023/02/22 03:12:10;;;;;;;5.93;3.17;;;6.10;99.90;;;;;;5045403;28;20044;-73
2023/02/22 03:14:59;;;;;;;6.95;4.75;;;6.00;99.90;;;;;;5049399;28;20501;-73
2023/02/22 03:17:44;;;;;;;5.78;3.60;;;5.90;99.90;;;;;;5050297;28;20076;-75
2023/02/22 03:20:41;;;;;;;7.25;3.92;;;5.80;99.90;;;;;;5069270;28;20040;-75
2023/02/22 03:23:31;;;;;;;7.30;3.90;;;5.80;99.90;;;;;;5041695;28;20037;-75
2023/02/22 03:26:03;;;;;;;7.05;3.78;;;5.70;99.90;;;;;;5069399;28;20042;-75
2023/02/22 03:28:29;;;;;;;8.18;3.72;;;5.70;99.90;;;;;;5068536;28;20021;-74
2023/02/22 03:31:00;;;;;;;6.50;3.30;;;5.60;99.90;;;;;;5069265;28;20173;-76
2023/02/22 03:33:35;;;;;;;5.47;3.10;;;5.60;99.90;;;;;;5069285;28;20024;-75
2023/02/22 03:36:33;;;;;;;8.40;4.80;;;5.50;99.90;;;;;;5069102;28;20040;-75
2023/02/22 03:39:03;;;;;;;8.18;4.55;;;5.40;99.90;;;;;;5050583;28;20566;-74
2023/02/22 03:41:30;;;;;;;7.85;4.47;;;5.30;99.90;;;;;;5051135;28;20032;-75
2023/02/22 03:44:04;;;;;;;7.38;4.25;;;5.20;99.90;;;;;;5068949;28;20024;-75
2023/02/22 03:46:31;;;;;;;5.28;2.70;;;5.20;99.90;;;;;;5068964;28;20029;-75
2023/02/22 03:49:15;;;;;;;8.82;4.13;;;5.30;99.90;;;;;;5050967;28;20020;-74
2023/02/22 03:51:41;;;;;;;10.55;5.05;;;5.40;99.90;;;;;;5051211;28;20389;-74
2023/02/22 03:54:07;;;;;;;;;;;5.40;99.90;;;;;;5069493;28;20127;-72
2023/02/22 03:56:38;;;;;;;8.23;4.45;;;5.30;99.90;;;;;;5068881;28;20395;-74
2023/02/22 03:59:07;;;;;;;7.95;4.60;;;5.20;99.90;;;;;;5051061;28;20024;-75
2023/02/22 04:01:33;;;;;;;8.60;5.05;;;5.10;99.90;;;;;;5068954;28;20024;-74
2023/02/22 04:04:00;;;;;;;7.40;4.80;;;5.00;99.90;;;;;;5069001;28;20170;-75
2023/02/22 04:06:26;;;;;;;8.32;4.72;;;5.00;99.90;;;;;;5068905;28;20397;-75
2023/02/22 04:08:52;;;;;;;11.52;6.65;;;5.00;99.90;;;;;;5050498;28;20017;-73
2023/02/22 04:11:17;;;;;;;;;;;5.00;99.90;;;;;;5051343;28;20025;-74
2023/02/22 04:13:43;;;;;;;7.95;4.78;;;4.90;99.90;;;;;;5069029;28;19911;-74
2023/02/22 04:16:09;;;;;;;;;;;4.90;99.90;;;;;;5069376;28;20031;-73
2023/02/22 04:18:34;;;;;;;10.13;4.88;;;5.00;99.90;;;;;;5050602;28;19909;-75
2023/02/22 04:21:00;;;;;;;;;;;4.90;99.90;;;;;;5069332;28;20101;-75
2023/02/22 04:23:25;;;;;;;8.82;5.43;;;5.00;99.90;;;;;;5068964;28;19958;-75
2023/02/22 04:25:51;;;;;;;;;;;5.00;99.90;;;;;;5069238;28;20017;-74
2023/02/22 04:28:17;;;;;;;13.07;6.20;;;4.90;99.90;;;;;;5068752;28;20363;-76
2023/02/22 04:30:44;;;;;;;10.30;4.22;;;4.90;99.90;;;;;;5050373;28;20111;-74
2023/02/22 04:33:10;;;;;;;6.90;3.67;;;5.00;99.90;;;;;;5050663;28;20056;-75
2023/02/22 04:35:36;;;;;;;5.15;2.40;;;5.00;99.90;;;;;;5050413;28;20420;-75
2023/02/22 04:38:03;;;;;;;;;;;5.10;99.90;;;;;;5051011;28;20111;-75
2023/02/22 04:40:29;;;;;;;10.57;5.60;;;5.00;99.90;;;;;;5054100;28;20365;-75
2023/02/22 04:42:54;;;;;;;;;;;4.90;99.90;;;;;;5055019;28;20025;-75
2023/02/22 04:45:20;;;;;;;12.77;6.07;;;4.80;99.90;;;;;;5072161;28;19915;-74
2023/02/22 04:47:46;;;;;;;;;;;4.70;99.90;;;;;;5072393;28;20036;-75
2023/02/22 04:50:12;;;;;;;17.83;5.95;;;4.70;99.90;;;;;;5072136;28;19919;-74
2023/02/22 04:52:37;;;;;;;;;;;4.90;99.90;;;;;;5072149;28;20032;-74
2023/02/22 04:55:04;;;;;;;14.75;5.90;;;5.30;99.90;;;;;;5071806;28;20231;-74
2023/02/22 04:57:29;;;;;;;13.10;6.32;;;5.40;99.90;;;;;;5053999;28;20036;-75
2023/02/22 04:59:55;;;;;;;;;;;5.60;99.90;;;;;;5072380;28;20041;-74
2023/02/22 05:02:21;;;;;;;8.75;4.20;;;5.70;99.90;;;;;;5053823;28;19908;-74
2023/02/22 05:04:46;;;;;;;;;;;5.70;99.90;;;;;;5072531;28;20107;-75
2023/02/22 05:07:12;;;;;;;10.07;4.47;;;5.70;99.90;;;;;;5053841;28;19909;-74
2023/02/22 05:09:38;;;;;;;;;;;5.70;99.90;;;;;;5054354;28;20028;-73
2023/02/22 05:12:03;;;;;;;10.30;4.50;;;5.70;99.90;;;;;;5053991;28;20011;-75
2023/02/22 05:14:29;;;;;;;;;;;5.70;99.90;;;;;;5072346;28;20091;-76
2023/02/22 05:16:56;;;;;;;8.05;3.83;;;5.70;99.90;;;;;;5071603;28;20375;-75
2023/02/22 05:19:22;;;;;;;7.95;3.45;;;5.70;99.90;;;;;;5053230;28;20041;-74
2023/02/22 05:21:49;;;;;;;7.60;4.32;;;5.60;99.90;;;;;;5071823;28;20027;-75
2023/02/22 05:24:14;;;;;;;10.88;5.32;;;5.60;99.90;;;;;;5071871;28;20140;-74
2023/02/22 05:26:41;;;;;;;;;;;5.50;99.90;;;;;;5053800;28;20571;-74
2023/02/22 05:29:07;;;;;;;13.30;5.35;;;5.40;99.90;;;;;;5071643;28;19914;-75
2023/02/22 05:31:33;;;;;;;;;;;5.40;99.90;;;;;;5054066;28;20037;-74
2023/02/22 05:33:58;;;;;;;17.75;5.72;;;5.50;99.90;;;;;;5071598;28;19923;-75
2023/02/22 05:36:24;;;;;;;;;;;5.40;99.90;;;;;;5053323;28;20051;-75
2023/02/22 05:38:50;;;;;;;14.00;4.40;;;5.40;99.90;;;;;;5053522;28;19915;-75
2023/02/22 05:41:15;;;;;;;;;;;5.30;99.90;;;;;;5053715;28;20146;-75
2023/02/22 05:43:41;;;;;;;10.57;4.47;;;5.40;99.90;;;;;;5071599;28;20327;-75
2023/02/22 05:46:07;;;;;;;;;;;5.30;99.90;;;;;;5053754;28;20024;-75
2023/02/22 05:48:33;;;;;;;14.43;6.53;;;5.30;99.90;;;;;;5053614;28;20465;-75
2023/02/22 05:50:58;;;;;;;16.73;7.13;;;5.20;99.90;;;;;;5052661;28;20454;-74
2023/02/22 05:53:24;;;;;;;;;;;5.20;99.90;;;;;;5071631;28;20556;-74
2023/02/22 05:55:51;;;;;;;17.20;4.30;;;5.30;99.90;;;;;;5053481;28;19908;-74
2023/02/22 05:58:16;;;;;;;14.57;5.20;;;5.20;99.90;;;;;;5053115;28;20028;-74
2023/02/22 06:00:42;;;;;;;;;;;5.20;99.90;;;;;;5071295;28;20152;-75
2023/02/22 06:03:09;;;;;;;19.20;6.30;;;5.20;99.90;;;;;;5052892;28;19908;-74
2023/02/22 06:05:36;;;;;;;17.02;6.95;;;5.20;99.90;;;;;;5070945;28;20024;-73
2023/02/22 06:08:03;;;;;;;13.95;5.13;;;5.20;99.90;;;;;;5052818;28;20058;-75
2023/02/22 06:10:29;;;;;;;20.17;4.20;;;5.40;99.90;;;;;;5070679;28;20036;-74
2023/02/22 06:12:55;;;;;;;;;;;5.50;99.90;;;;;;5053154;28;20025;-74
2023/02/22 06:15:23;;;;;;;20.20;4.90;;;5.50;99.90;;;;;;5052592;28;20373;-74
2023/02/22 06:17:50;;;;;;;24.42;7.75;;;5.60;99.90;;;;;;5070466;28;20025;-74
2023/02/22 06:20:18;;;;;;;18.48;6.13;;;5.70;99.90;;;;;;5052545;28;20063;-74
2023/02/22 06:22:46;;;;;;;14.13;5.10;;;5.80;99.90;;;;;;5052681;28;20025;-75
2023/02/22 06:25:15;;;;;;;20.92;8.02;;;5.90;99.90;;;;;;5070501;28;20039;-76
2023/02/22 06:27:40;;;;;;;22.77;7.93;;;6.00;99.90;;;;;;5052372;28;20032;-75
2023/02/22 06:30:06;;;;;;;;;;;6.10;99.90;;;;;;5052786;28;20032;-76
2023/02/22 06:32:32;;;;;;;26.15;9.60;;;6.20;99.90;;;;;;5051998;28;20381;-74
2023/02/22 06:34:58;;;;;;;;;;;6.30;99.90;;;;;;5052804;28;20040;-73
2023/02/22 06:37:23;;;;;;;13.45;4.75;;;6.50;99.90;;;;;;5052301;28;20278;-73
2023/02/22 06:39:49;;;;;;;;;;;6.80;99.90;;;;;;5052729;28;20520;-75
2023/02/22 06:42:14;;;;;;;10.88;4.80;;;7.40;99.90;;;;;;5070307;28;19912;-75
2023/02/22 06:44:40;;;;;;;;;;;8.00;99.90;;;;;;5070508;28;20027;-74
2023/02/22 06:47:06;;;;;;;15.73;4.28;;;8.70;99.90;;;;;;5051622;28;19915;-75
2023/02/22 06:49:31;;;;;;;;;;;9.40;99.90;;;;;;5070095;28;20041;-75
2023/02/22 06:51:57;;;;;;;17.80;5.03;;;10.00;99.90;;;;;;5070008;28;19914;-75
2023/02/22 06:54:22;;;;;;;;;;;10.50;99.90;;;;;;5070368;28;20107;-76
2023/02/22 06:56:48;;;;;;;12.25;3.30;;;11.00;99.90;;;;;;5069820;28;19934;-75
2023/02/22 06:59:14;;;;;;;;;;;11.50;99.90;;;;;;5070241;28;20442;-75
2023/02/22 07:01:43;;;;;;;17.25;3.53;;;12.00;99.90;;;;;;5069238;28;19915;-75
2023/02/22 07:04:10;;;;;;;15.65;3.85;;;12.60;99.90;;;;;;5069192;28;20032;-75
2023/02/22 07:06:35;;;;;;;13.65;3.70;;;13.10;99.90;;;;;;5051437;28;20043;-75
2023/02/22 07:09:02;;;;;;;;;;;13.60;98.70;;;;;;5052601;28;20032;-76
2023/02/22 07:11:27;;;;;;;13.50;3.03;;;13.80;92.50;;;;;;5069946;28;19916;-75
2023/02/22 07:13:54;;;;;;;;;;;13.90;96.40;;;;;;5070158;28;20032;-75
2023/02/22 07:16:20;;;;;;;11.37;2.77;;;14.40;94.00;;;;;;5051686;28;20284;-76
2023/02/22 07:18:46;;;;;;;12.32;3.45;;;14.80;88.60;;;;;;5051364;28;20033;-75
2023/02/22 07:21:11;;;;;;;12.85;2.92;;;14.80;88.40;;;;;;5051663;28;20038;-76
2023/02/22 07:23:37;;;;;;;;;;;14.70;79.30;;;;;;5069850;28;20052;-76
2023/02/22 07:26:04;;;;;;;14.90;4.95;;;14.70;79.10;;;;;;5051435;28;20436;-75
2023/02/22 07:28:29;;;;;;;11.32;3.00;;;14.90;81.40;;;;;;5051171;28;20048;-75
2023/02/22 07:30:55;;;;;;;14.48;3.80;;;14.70;80.90;;;;;;5069386;28;20060;-75
2023/02/22 07:33:21;;;;;;;22.98;8.35;;;14.20;83.90;;;;;;5051310;28;20550;-75
2023/02/22 07:35:48;;;;;;;;;;;13.70;86.20;;;;;;5069401;28;20052;-75
2023/02/22 07:38:15;;;;;;;14.82;3.80;;;12.80;87.90;;;;;;5051287;28;20443;-75
2023/02/22 07:40:41;;;;;;;16.33;3.00;;;12.00;94.30;;;;;;5069322;28;20564;-75
2023/02/22 07:43:23;;;;;;;10.02;3.08;;;11.70;96.30;;;;;;5051540;28;20025;-75
2023/02/22 07:45:53;;;;;;;11.27;4.85;;;11.30;98.70;;;;;;5069376;28;20115;-76
2023/02/22 07:48:20;;;;;;;18.25;3.03;;;11.20;99.10;;;;;;5069279;28;20096;-75
2023/02/22 07:50:46;;;;;;;21.02;7.57;;;10.90;99.90;;;;;;5069018;28;20020;-75
2023/02/22 07:53:19;;;;;;;13.73;3.72;;;10.70;99.90;;;;;;5069346;28;20115;-75
2023/02/22 07:55:48;;;;;;;19.45;3.75;;;10.40;99.90;;;;;;5069134;28;20025;-75
2023/02/22 07:58:16;;;;;;;15.10;3.95;;;10.40;99.90;;;;;;5068946;28;20039;-75
2023/02/22 08:00:47;;;;;;;22.45;5.57;;;10.30;99.90;;;;;;5050874;28;20082;-75
2023/02/22 08:03:14;;;;;;;17.08;4.22;;;10.20;99.90;;;;;;5069172;28;20020;-75
2023/02/22 08:05:43;;;;;;;9.77;2.88;;;10.30;99.90;;;;;;5051115;28;20024;-74
2023/02/22 08:08:09;;;;;;;14.32;4.30;;;10.40;99.90;;;;;;5050568;28;20025;-74
2023/02/22 08:10:35;;;;;;;;;;;10.40;99.30;;;;;;5069488;28;20404;-75
2023/02/22 08:13:01;;;;;;;14.30;4.05;;;10.50;99.10;;;;;;5051221;28;20377;-75
2023/02/22 08:15:33;;;;;;;19.70;5.32;;;10.50;98.20;;;;;;5072932;28;20035;-75
2023/02/22 08:18:01;;;;;;;13.48;3.20;;;10.50;99.10;;;;;;5073026;28;20464;-75
2023/02/22 08:20:28;;;;;;;12.63;2.88;;;10.60;99.60;;;;;;5054800;28;20071;-75
2023/02/22 08:22:54;;;;;;;14.20;2.65;;;11.20;98.60;;;;;;5054879;28;20029;-75
2023/02/22 08:25:24;;;;;;;13.88;2.70;;;11.60;95.60;;;;;;5072994;28;20032;-75
2023/02/22 08:27:50;;;;;;;17.27;2.40;;;11.80;94.50;;;;;;5054937;28;20035;-74
2023/02/22 08:30:21;;;;;;;9.88;2.60;;;11.70;93.00;;;;;;5054630;28;20095;-74
2023/02/22 08:32:48;;;;;;;15.32;2.90;;;11.70;93.50;;;;;;5073039;28;20025;-75
2023/02/22 08:35:15;;;;;;;12.15;2.78;;;11.50;94.60;;;;;;5054687;28;20555;-75
2023/02/22 08:37:43;;;;;;;16.55;3.08;;;11.50;95.30;;;;;;5072632;28;20048;-74
2023/02/22 08:40:09;;;;;;;12.90;2.80;;;11.40;94.30;;;;;;5054540;28;20040;-75
2023/02/22 08:42:35;;;;;;;15.73;4.03;;;11.50;95.10;;;;;;5054578;28;20097;-73
2023/02/22 08:45:00;;;;;;;;;;;11.40;94.90;;;;;;5054782;28;20545;-75
2023/02/22 08:47:26;;;;;;;23.17;14.45;;;11.30;95.80;;;;;;5054672;28;20387;-74
2023/02/22 08:49:51;;;;;;;;;;;11.40;95.40;;;;;;5072479;28;20527;-74
2023/02/22 08:52:18;;;;;;;14.18;2.85;;;11.20;94.40;;;;;;5072422;28;19909;-75
2023/02/22 08:54:44;;;;;;;13.73;3.33;;;11.00;95.70;;;;;;5054639;28;20032;-75
2023/02/22 08:57:10;;;;;;;10.98;3.35;;;11.00;96.90;;;;;;5072373;28;20477;-73
2023/02/22 08:59:36;;;;;;;;;;;11.10;97.10;;;;;;5072480;28;20045;-75
2023/02/22 09:02:01;;;;;;;21.95;3.05;;;11.10;95.80;;;;;;5054058;28;20376;-75
2023/02/22 09:04:27;;;;;;;;;;;11.20;97.30;;;;;;5071756;28;20032;-75
2023/02/22 09:06:53;;;;;;;11.65;3.10;;;11.40;96.60;;;;;;5071734;28;19915;-75
2023/02/22 09:09:20;;;;;;;;;;;11.60;96.00;;;;;;5054614;28;20025;-74
2023/02/22 09:11:49;;;;;;;12.30;2.97;;;11.80;96.00;;;;;;5054111;28;19904;-75
2023/02/22 09:14:15;;;;;;;17.88;6.20;;;11.70;94.60;;;;;;5071890;28;20115;-76
2023/02/22 09:16:42;;;;;;;20.08;6.20;;;11.70;94.50;;;;;;5071704;28;20405;-74
2023/02/22 09:19:08;;;;;;;13.35;3.45;;;11.60;95.10;;;;;;5053752;28;20029;-75
2023/02/22 09:21:33;;;;;;;;;;;11.50;95.40;;;;;;5053837;28;20036;-74
2023/02/22 09:24:07;;;;;;;13.77;3.50;;;11.30;95.00;;;;;;5071505;28;19914;-74
2023/02/22 09:26:38;;;;;;;15.18;3.88;;;11.20;96.40;;;;;;5070513;28;20021;-75
2023/02/22 09:29:09;;;;;;;14.40;3.65;;;11.10;97.40;;;;;;5071452;28;20028;-76
2023/02/22 09:31:40;;;;;;;14.35;3.67;;;11.10;96.80;;;;;;5053548;28;20033;-74
2023/02/22 09:34:14;;;;;;;15.43;3.67;;;11.50;96.90;;;;;;5053525;28;20035;-75
2023/02/22 09:36:41;;;;;;;16.42;4.38;;;11.70;95.40;;;;;;5071301;28;20051;-76
2023/02/22 09:39:08;;;;;;;16.83;3.88;;;11.70;94.50;;;;;;5053472;28;20024;-75
2023/02/22 09:41:52;;;;;;;23.38;4.93;;;11.70;94.20;;;;;;5071557;28;20115;-75
2023/02/22 09:44:26;;;;;;;17.75;4.30;;;11.50;95.10;;;;;;5053399;28;20025;-75
2023/02/22 09:46:55;;;;;;;13.45;3.42;;;11.30;96.00;;;;;;5071306;28;20417;-75
2023/02/22 09:49:28;;;;;;;14.95;4.25;;;11.30;96.40;;;;;;5071344;28;20048;-73
2023/02/22 09:51:54;;;;;;;14.43;4.10;;;11.40;95.90;;;;;;5053133;28;20025;-75
2023/02/22 09:54:25;;;;;;;;;;;11.40;94.90;;;;;;5053567;28;20135;-74
2023/02/22 09:56:56;;;;;;;24.58;8.27;;;11.40;93.90;;;;;;5053186;28;19979;-75
2023/02/22 09:59:28;;;;;;;18.55;4.07;;;11.30;94.80;;;;;;5070996;28;20028;-74
2023/02/22 10:02:06;;;;;;;14.07;4.28;;;11.40;95.20;;;;;;5071158;28;20020;-74
2023/02/22 10:04:43;;;;;;;14.02;5.10;;;11.30;96.10;;;;;;5052946;28;20424;-75
2023/02/22 10:07:30;;;;;;;13.07;3.67;;;11.90;94.30;;;;;;5052795;28;20048;-75
2023/02/22 10:09:57;;;;;;;;;;;12.70;93.90;;;;;;5070849;28;20055;-74
2023/02/22 10:12:29;;;;;;;13.25;3.25;;;13.00;87.30;;;;;;5052536;28;19939;-75
2023/02/22 10:15:21;;;;;;;11.65;3.50;;;13.10;84.40;;;;;;5070622;28;20385;-75
2023/02/22 10:18:08;;;;;;;13.30;4.43;;;12.90;86.20;;;;;;5052635;28;20366;-75
2023/02/22 10:20:48;;;;;;;17.40;5.60;;;12.90;86.70;;;;;;5052401;28;20106;-75
2023/02/22 10:23:39;;;;;;;13.43;4.07;;;13.20;91.30;;;;;;5070689;28;20116;-76
2023/02/22 10:26:18;;;;;;;21.48;4.03;;;13.40;86.20;;;;;;5070650;28;20529;-75
2023/02/22 10:28:55;;;;;;;22.52;8.32;;;13.40;82.30;;;;;;5070283;28;20039;-76
2023/02/22 10:31:27;;;;;;;22.92;6.20;;;13.40;78.30;;;;;;5071035;28;20025;-75
2023/02/22 10:34:06;;;;;;;14.82;3.92;;;13.10;82.60;;;;;;5052679;28;20039;-75
2023/02/22 10:36:33;;;;;;;15.68;3.65;;;13.00;81.70;;;;;;5069934;28;20137;-75
2023/02/22 10:39:11;;;;;;;12.73;4.30;;;12.90;85.20;;;;;;5052242;28;20055;-75
2023/02/22 10:41:43;;;;;;;12.63;3.35;;;13.10;87.50;;;;;;5052310;28;20401;-75
2023/02/22 10:44:09;;;;;;;13.57;4.00;;;13.40;86.60;;;;;;5051960;28;20029;-75
2023/02/22 10:46:35;;;;;;;;;;;13.60;81.60;;;;;;5070404;28;20040;-75
2023/02/22 10:49:07;;;;;;;12.38;3.10;;;13.70;79.20;;;;;;5070222;28;19908;-75
2023/02/22 10:51:34;;;;;;;14.10;3.13;;;13.60;79.50;;;;;;5070037;28;20081;-74
2023/02/22 10:54:22;;;;;;;11.70;3.03;;;13.40;79.50;;;;;;5052179;28;20098;-75
2023/02/22 10:56:56;;;;;;;13.77;3.15;;;13.30;82.30;;;;;;5052046;28;20025;-73
2023/02/22 10:59:29;;;;;;;16.48;3.30;;;13.30;83.80;;;;;;5069931;28;20024;-75
2023/02/22 11:01:56;;;;;;;19.13;3.63;;;13.30;81.60;;;;;;5069986;28;20119;-75
2023/02/22 11:04:22;;;;;;;14.68;3.92;;;13.10;78.90;;;;;;5051594;28;20136;-73
2023/02/22 11:06:58;;;;;;;19.58;5.63;;;12.80;83.90;;;;;;5051751;28;20043;-75
2023/02/22 11:09:24;;;;;;;14.13;3.30;;;12.80;86.30;;;;;;5069827;28;20028;-74
2023/02/22 11:12:16;;;;;;;;;;;12.40;86.00;;;;;;5052174;28;20033;-75
2023/02/22 11:14:42;;;;;;;17.45;3.90;;;12.20;88.20;;;;;;5064685;28;19912;-74
2023/02/22 11:17:08;;;;;;;;;;;12.10;89.70;;;;;;5070208;28;20028;-74
2023/02/22 11:19:37;;;;;;;16.67;3.88;;;12.10;91.40;;;;;;5069501;28;19920;-73
2023/02/22 11:22:08;;;;;;;14.20;3.35;;;12.40;90.20;;;;;;5069581;28;20040;-74
2023/02/22 11:24:52;;;;;;;15.82;4.35;;;12.50;88.30;;;;;;5069474;28;20021;-77
2023/02/22 11:27:42;;;;;;;13.02;3.53;;;12.80;89.70;;;;;;5051482;28;20039;-75
2023/02/22 11:30:23;;;;;;;15.27;5.28;;;12.90;86.20;;;;;;5064520;28;20029;-75
2023/02/22 11:32:55;;;;;;;17.98;4.18;;;13.10;87.40;;;;;;5069529;28;20103;-75
2023/02/22 11:35:27;;;;;;;15.90;3.67;;;13.20;84.60;;;;;;5069404;28;20134;-75
2023/02/22 11:37:52;;;;;;;11.93;3.58;;;13.00;81.90;;;;;;5051436;28;20056;-74
2023/02/22 11:40:21;;;;;;;;;;;12.70;82.70;;;;;;5069768;28;20119;-74
2023/02/22 11:43:04;;;;;;;20.20;4.03;;;12.50;86.00;;;;;;5069359;28;19991;-74
2023/02/22 11:45:30;;;;;;;11.38;4.78;;;12.50;88.20;;;;;;5051202;28;20032;-75
2023/02/22 11:47:59;;;;;;;;;;;12.50;88.20;;;;;;5069614;28;20082;-74
2023/02/22 11:50:32;;;;;;;15.35;4.28;;;12.60;85.90;;;;;;5046445;28;19915;-74
2023/02/22 11:53:09;;;;;;;11.40;3.35;;;12.50;87.90;;;;;;5050799;28;20032;-75
2023/02/22 11:56:04;;;;;;;22.95;5.18;;;12.50;90.20;;;;;;5062673;28;20025;-75
2023/02/22 11:58:53;;;;;;;19.80;3.63;;;12.30;88.70;;;;;;5054694;28;20079;-74
2023/02/22 12:02:00;;;;;;;15.05;3.40;;;12.10;91.00;;;;;;5029341;28;20515;-74
2023/02/22 12:04:28;;;;;;;16.90;3.63;;;11.80;92.00;;;;;;5051015;28;20032;-74
2023/02/22 12:07:08;;;;;;;15.85;3.90;;;11.70;93.00;;;;;;5069396;28;20029;-74
2023/02/22 12:09:44;;;;;;;16.88;4.57;;;11.50;93.70;;;;;;5051368;28;20028;-75
2023/02/22 12:12:27;;;;;;;13.98;3.80;;;11.50;94.60;;;;;;5069101;28;20024;-75
2023/02/22 12:15:12;;;;;;;15.45;4.25;;;11.70;94.60;;;;;;5068818;28;20037;-74
2023/02/22 12:17:48;;;;;;;27.10;5.35;;;11.90;93.20;;;;;;5050857;28;20492;-75
2023/02/22 12:20:23;;;;;;;28.77;12.40;;;12.00;92.70;;;;;;5068745;28;20090;-74
2023/02/22 12:23:03;;;;;;;11.63;3.90;;;12.00;93.00;;;;;;5051061;28;20563;-75
2023/02/22 12:25:37;;;;;;;13.40;3.78;;;11.80;93.20;;;;;;5068838;28;20424;-75
2023/02/22 12:28:21;;;;;;;18.02;3.63;;;11.70;94.10;;;;;;5068776;28;20424;-75
2023/02/22 12:30:55;;;;;;;14.05;3.58;;;11.60;94.70;;;;;;5068206;28;20036;-75
2023/02/22 12:33:27;;;;;;;12.60;4.00;;;11.70;94.90;;;;;;5050717;28;20075;-74
2023/02/22 12:35:57;;;;;;;18.40;5.55;;;11.70;94.20;;;;;;5050701;28;20045;-75
2023/02/22 12:38:36;;;;;;;16.23;5.22;;;11.70;95.70;;;;;;5050138;28;20054;-75
2023/02/22 12:41:25;;;;;;;20.63;5.28;;;11.70;94.50;;;;;;5068583;28;20032;-75
2023/02/22 12:44:08;;;;;;;22.05;4.35;;;11.70;95.10;;;;;;5050864;28;20036;-74
2023/02/22 12:46:39;;;;;;;26.70;13.90;;;11.60;95.90;;;;;;5068412;28;20021;-74
2023/02/22 12:49:24;;;;;;;34.05;21.35;;;11.60;95.50;;;;;;5068590;28;20504;-75
2023/02/22 12:51:59;;;;;;;16.27;6.53;;;11.60;96.20;;;;;;5068706;28;20070;-74
2023/02/22 12:54:31;;;;;;;19.98;4.10;;;11.70;95.70;;;;;;5050449;28;20899;-74
2023/02/22 12:56:59;;;;;;;12.30;3.95;;;11.80;94.70;;;;;;5068465;28;20025;-75
2023/02/22 12:59:32;;;;;;;15.38;5.90;;;11.80;94.70;;;;;;5068748;28;20024;-75
2023/02/22 13:02:26;;;;;;;23.27;6.97;;;11.80;94.80;;;;;;5071995;28;20032;-75
2023/02/22 13:04:52;;;;;;;16.70;4.45;;;11.80;95.00;;;;;;5053819;28;20573;-75
2023/02/22 13:07:20;;;;;;;;;;;11.80;94.80;;;;;;5072540;28;20052;-75
2023/02/22 13:10:15;;;;;;;12.48;3.80;;;11.70;93.90;;;;;;5054082;28;19908;-74
2023/02/22 13:12:56;;;;;;;17.90;5.13;;;11.60;94.60;;;;;;5054008;28;20036;-74
2023/02/22 13:15:51;;;;;;;20.13;6.80;;;11.50;94.50;;;;;;5072014;28;20028;-75
2023/02/22 13:18:38;;;;;;;13.57;5.30;;;11.40;94.60;;;;;;5062980;28;20066;-74